createdAt,value
2018-11-11T00:00:25.499Z,47.50
2018-11-11T00:02:55.250Z,47.00
2018-11-11T00:05:24.152Z,46.80
2018-11-11T00:07:52.994Z,46.80
2018-11-11T00:10:21.750Z,46.90
2018-11-11T00:12:50.679Z,46.80
2018-11-11T00:15:19.466Z,46.70
2018-11-11T00:17:48.768Z,46.80
2018-11-11T00:20:17.723Z,46.50
2018-11-11T00:22:46.569Z,47.10
2018-11-11T00:25:15.412Z,46.90
2018-11-11T00:27:44.246Z,47.10
2018-11-11T00:30:15.726Z,46.80
2018-11-11T00:32:44.721Z,46.80
2018-11-11T00:35:13.601Z,46.80
2018-11-11T00:37:42.433Z,46.80
2018-11-11T00:40:12.657Z,46.80
2018-11-11T00:42:41.592Z,46.10
2018-11-11T00:45:10.972Z,46.30
2018-11-11T00:47:39.856Z,46.20
2018-11-11T00:50:09.790Z,46.20
2018-11-11T00:52:38.710Z,46.00
2018-11-11T00:55:10.825Z,46.00
2018-11-11T00:57:39.837Z,45.80
2018-11-11T01:00:12.258Z,46.00
2018-11-11T01:02:41.803Z,45.80
2018-11-11T01:05:11.417Z,45.90
2018-11-11T01:07:41.193Z,45.60
2018-11-11T01:10:12.783Z,45.70
2018-11-11T01:12:42.683Z,45.70
2018-11-11T01:15:13.019Z,45.50
2018-11-11T01:17:41.793Z,45.70
2018-11-11T01:20:12.443Z,45.40
2018-11-11T01:22:41.381Z,45.40
2018-11-11T01:25:12.265Z,45.30
2018-11-11T01:27:41.345Z,45.10
2018-11-11T01:30:10.271Z,45.90
2018-11-11T01:32:39.323Z,46.30
2018-11-11T01:35:10.669Z,46.00
2018-11-11T01:37:39.661Z,46.20
2018-11-11T01:40:09.008Z,46.20
2018-11-11T01:42:37.933Z,46.50
2018-11-11T01:45:11.285Z,46.50
2018-11-11T01:47:40.120Z,46.50
2018-11-11T01:50:09.849Z,46.30
2018-11-11T01:52:38.756Z,46.50
2018-11-11T01:55:07.697Z,46.00
2018-11-11T01:57:36.702Z,46.10
2018-11-11T02:00:07.353Z,46.50
2018-11-11T02:02:36.225Z,46.10
2018-11-11T02:05:06.096Z,45.90
2018-11-11T02:07:34.961Z,45.90
2018-11-11T02:10:04.034Z,45.90
2018-11-11T02:12:32.787Z,45.70
2018-11-11T02:15:01.702Z,45.80
2018-11-11T02:17:30.571Z,45.70
2018-11-11T02:19:59.744Z,45.70
2018-11-11T02:22:28.658Z,45.70
2018-11-11T02:24:57.478Z,45.60
2018-11-11T02:27:26.260Z,45.70
2018-11-11T02:29:55.121Z,45.60
2018-11-11T02:32:23.909Z,45.60
2018-11-11T02:34:52.805Z,45.70
2018-11-11T02:37:21.627Z,45.50
2018-11-11T02:39:50.397Z,45.50
2018-11-11T02:42:19.242Z,45.50
2018-11-11T02:44:48.123Z,45.20
2018-11-11T02:47:16.922Z,45.90
2018-11-11T02:49:45.741Z,45.20
2018-11-11T02:52:14.457Z,45.90
2018-11-11T02:54:43.281Z,45.00
2018-11-11T02:57:12.047Z,45.20
2018-11-11T02:59:40.819Z,45.10
2018-11-11T03:02:09.551Z,44.80
2018-11-11T03:04:38.458Z,45.30
2018-11-11T03:07:07.597Z,45.70
2018-11-11T03:09:36.391Z,45.70
2018-11-11T03:12:05.281Z,45.50
2018-11-11T03:14:34.096Z,45.60
2018-11-11T03:17:02.849Z,45.40
2018-11-11T03:19:31.744Z,45.10
2018-11-11T03:22:00.622Z,45.20
2018-11-11T03:24:29.487Z,45.10
2018-11-11T03:26:58.328Z,45.20
2018-11-11T03:29:27.126Z,45.70
2018-11-11T03:31:56.014Z,45.60
2018-11-11T03:34:24.913Z,45.60
2018-11-11T03:36:53.651Z,45.70
2018-11-11T03:39:22.422Z,45.90
2018-11-11T03:41:51.298Z,45.80
2018-11-11T03:44:20.110Z,45.90
2018-11-11T03:46:48.929Z,46.30
2018-11-11T03:49:17.713Z,45.60
2018-11-11T03:51:46.513Z,45.70
2018-11-11T03:54:15.466Z,45.90
2018-11-11T03:56:44.317Z,45.70
2018-11-11T03:59:13.165Z,45.70
2018-11-11T04:01:41.957Z,45.40
2018-11-11T04:04:10.756Z,45.40
2018-11-11T04:06:39.548Z,45.60
2018-11-11T04:09:10.506Z,45.60
2018-11-11T04:11:39.794Z,45.60
2018-11-11T04:14:09.089Z,45.50
2018-11-11T04:16:38.040Z,45.50
2018-11-11T04:19:07.602Z,45.40
2018-11-11T04:21:36.442Z,45.50
2018-11-11T04:24:05.495Z,45.40
2018-11-11T04:26:34.365Z,45.40
2018-11-11T04:29:03.269Z,45.30
2018-11-11T04:31:32.161Z,45.40
2018-11-11T04:34:01.166Z,45.40
2018-11-11T04:36:30.060Z,45.40
2018-11-11T04:38:58.946Z,45.50
2018-11-11T04:41:27.771Z,45.50
2018-11-11T04:43:56.520Z,45.70
2018-11-11T04:46:25.347Z,45.50
2018-11-11T04:48:54.200Z,45.30
2018-11-11T04:51:22.991Z,45.20
2018-11-11T04:53:51.708Z,45.10
2018-11-11T04:56:20.510Z,45.00
2018-11-11T04:58:49.385Z,45.10
2018-11-11T05:01:18.328Z,45.00
2018-11-11T05:03:47.189Z,45.00
2018-11-11T05:06:16.057Z,44.70
2018-11-11T05:08:44.960Z,44.40
2018-11-11T05:11:13.774Z,44.20
2018-11-11T05:13:42.654Z,44.80
2018-11-11T05:16:11.558Z,45.00
2018-11-11T05:18:40.605Z,45.20
2018-11-11T05:21:09.481Z,45.00
2018-11-11T05:23:38.279Z,44.70
2018-11-11T05:26:07.197Z,44.80
2018-11-11T05:28:36.109Z,44.60
2018-11-11T05:31:05.069Z,44.70
2018-11-11T05:33:33.948Z,44.40
2018-11-11T05:36:02.839Z,44.40
2018-11-11T05:38:31.737Z,44.40
2018-11-11T05:41:00.749Z,44.70
2018-11-11T05:43:29.615Z,44.80
2018-11-11T05:45:58.545Z,44.80
2018-11-11T05:48:27.500Z,44.80
2018-11-11T05:50:56.421Z,44.70
2018-11-11T05:53:25.429Z,44.60
2018-11-11T05:55:54.327Z,44.60
2018-11-11T05:58:23.181Z,44.90
2018-11-11T06:00:52.057Z,44.70
2018-11-11T06:03:20.969Z,44.80
2018-11-11T06:05:49.848Z,44.80
2018-11-11T06:08:18.627Z,44.90
2018-11-11T06:10:47.494Z,44.80
2018-11-11T06:13:16.315Z,44.30
2018-11-11T06:15:45.249Z,44.50
2018-11-11T06:18:14.089Z,44.40
2018-11-11T06:20:42.984Z,44.40
2018-11-11T06:23:11.826Z,44.20
2018-11-11T06:25:40.689Z,44.60
2018-11-11T06:28:09.598Z,44.70
2018-11-11T06:30:38.530Z,45.60
2018-11-11T06:33:07.333Z,46.10
2018-11-11T06:35:36.129Z,46.00
2018-11-11T06:38:05.169Z,45.80
2018-11-11T06:40:34.005Z,46.20
2018-11-11T06:43:02.861Z,46.20
2018-11-11T06:45:31.691Z,46.10
2018-11-11T06:48:00.509Z,46.40
2018-11-11T06:50:29.318Z,46.40
2018-11-11T06:52:58.185Z,46.40
2018-11-11T06:55:27.146Z,46.40
2018-11-11T06:57:56.928Z,46.20
2018-11-11T07:00:25.665Z,46.30
2018-11-11T07:03:05.498Z,46.20
2018-11-11T07:05:34.394Z,46.60
2018-11-11T07:08:03.305Z,46.50
2018-11-11T07:10:32.297Z,46.70
2018-11-11T07:13:01.129Z,46.70
2018-11-11T07:15:29.971Z,47.00
2018-11-11T07:17:58.864Z,47.20
2018-11-11T07:20:27.716Z,46.80
2018-11-11T07:22:56.545Z,46.90
2018-11-11T07:25:25.451Z,46.90
2018-11-11T07:27:54.332Z,47.30
2018-11-11T07:30:23.091Z,46.80
2018-11-11T07:32:52.078Z,47.00
2018-11-11T07:35:20.963Z,47.00
2018-11-11T07:37:49.881Z,47.00
2018-11-11T07:40:18.801Z,47.40
2018-11-11T07:42:47.643Z,47.40
2018-11-11T07:45:16.566Z,47.00
2018-11-11T07:47:45.427Z,47.00
2018-11-11T07:50:14.209Z,47.00
2018-11-11T07:52:43.069Z,47.30
2018-11-11T07:55:12.911Z,47.50
2018-11-11T07:57:42.294Z,47.70
2018-11-11T08:00:12.935Z,47.70
2018-11-11T08:02:41.922Z,47.70
2018-11-11T08:05:10.778Z,47.90
2018-11-11T08:07:39.615Z,47.70
2018-11-11T08:10:19.726Z,47.90
2018-11-11T08:12:48.610Z,48.00
2018-11-11T08:15:17.506Z,48.20
2018-11-11T08:17:46.359Z,48.40
2018-11-11T08:20:15.305Z,49.00
2018-11-11T08:22:44.314Z,48.10
2018-11-11T08:25:13.165Z,48.50
2018-11-11T08:27:41.943Z,49.00
2018-11-11T08:30:10.827Z,48.80
2018-11-11T08:32:39.641Z,48.60
2018-11-11T08:35:20.060Z,48.60
2018-11-11T08:37:49.154Z,48.30
2018-11-11T08:40:17.922Z,48.10
2018-11-11T08:42:46.735Z,48.40
2018-11-11T08:45:15.578Z,48.40
2018-11-11T08:47:45.260Z,47.80
2018-11-11T08:50:14.504Z,47.80
2018-11-11T08:52:43.361Z,47.70
2018-11-11T08:55:12.203Z,47.70
2018-11-11T08:57:41.057Z,48.20
2018-11-11T09:00:11.770Z,48.00
2018-11-11T09:02:40.905Z,48.20
2018-11-11T09:05:09.759Z,48.10
2018-11-11T09:07:38.909Z,48.20
2018-11-11T09:10:09.910Z,47.90
2018-11-11T09:12:38.792Z,48.00
2018-11-11T09:15:10.721Z,48.00
2018-11-11T09:17:39.795Z,48.10
2018-11-11T09:20:09.091Z,47.90
2018-11-11T09:22:37.861Z,47.90
2018-11-11T09:25:07.979Z,47.90
2018-11-11T09:27:36.770Z,47.90
2018-11-11T09:30:07.361Z,47.70
2018-11-11T09:32:36.178Z,47.90
2018-11-11T09:35:05.837Z,47.90
2018-11-11T09:37:34.574Z,47.60
2018-11-11T09:40:03.531Z,47.90
2018-11-11T09:42:32.463Z,47.80
2018-11-11T09:45:01.377Z,47.90
2018-11-11T09:47:30.270Z,47.70
2018-11-11T09:49:59.385Z,47.90
2018-11-11T09:52:28.151Z,47.90
2018-11-11T09:54:56.921Z,47.90
2018-11-11T09:57:26.365Z,48.00
2018-11-11T09:59:55.352Z,47.90
2018-11-11T10:02:24.269Z,47.90
2018-11-11T10:04:58.476Z,48.00
2018-11-11T10:07:31.278Z,48.00
2018-11-11T10:10:35.386Z,47.90
2018-11-11T10:13:12.758Z,48.00
2018-11-11T10:17:53.417Z,48.60
2018-11-11T10:22:30.940Z,47.90
2018-11-11T10:25:08.095Z,47.80
2018-11-11T10:27:42.128Z,47.80
2018-11-11T10:30:22.198Z,47.80
2018-11-11T10:33:09.399Z,47.80
2018-11-11T10:35:43.406Z,47.50
2018-11-11T10:38:22.884Z,47.30
2018-11-11T10:41:10.560Z,47.20
2018-11-11T10:43:46.529Z,47.20
2018-11-11T10:46:20.151Z,47.50
2018-11-11T10:48:53.035Z,48.00
2018-11-11T10:51:21.886Z,48.00
2018-11-11T10:53:50.646Z,47.80
2018-11-11T10:56:20.988Z,48.00
2018-11-11T10:58:49.830Z,48.00
2018-11-11T11:01:18.642Z,48.00
2018-11-11T11:03:47.437Z,48.00
2018-11-11T11:06:16.286Z,48.40
2018-11-11T11:08:50.397Z,48.50
2018-11-11T11:11:19.276Z,48.50
2018-11-11T11:13:48.229Z,48.50
2018-11-11T11:16:17.098Z,48.50
2018-11-11T11:18:45.986Z,48.50
2018-11-11T11:21:14.850Z,48.50
2018-11-11T11:23:43.829Z,48.50
2018-11-11T11:26:12.598Z,48.60
2018-11-11T11:28:41.447Z,48.50
2018-11-11T11:31:10.375Z,48.50
2018-11-11T11:33:39.473Z,48.60
2018-11-11T11:36:08.393Z,48.60
2018-11-11T11:38:37.301Z,48.60
2018-11-11T11:41:06.306Z,48.70
2018-11-11T11:43:34.995Z,48.70
2018-11-11T11:46:03.807Z,48.70
2018-11-11T11:48:32.589Z,48.70
2018-11-11T11:51:01.454Z,48.70
2018-11-11T11:53:30.344Z,48.70
2018-11-11T11:55:59.458Z,48.80
2018-11-11T11:58:29.355Z,49.00
2018-11-11T12:00:58.177Z,48.90
2018-11-11T12:03:27.119Z,49.00
2018-11-11T12:05:55.975Z,49.20
2018-11-11T12:08:24.715Z,49.40
2018-11-11T12:10:53.527Z,49.30
2018-11-11T12:13:22.343Z,49.90
2018-11-11T12:16:06.488Z,50.40
2018-11-11T12:18:35.641Z,50.60
2018-11-11T12:21:04.519Z,50.80
2018-11-11T12:23:33.325Z,50.90
2018-11-11T12:26:02.180Z,51.30
2018-11-11T12:28:31.106Z,51.50
2018-11-11T12:31:00.034Z,51.90
2018-11-11T12:33:28.835Z,51.90
2018-11-11T12:35:57.739Z,51.70
2018-11-11T12:38:26.540Z,52.00
2018-11-11T12:40:55.539Z,52.70
2018-11-11T12:43:24.438Z,53.40
2018-11-11T12:45:53.479Z,52.90
2018-11-11T12:48:22.393Z,51.90
2018-11-11T12:50:51.309Z,52.40
2018-11-11T12:53:20.210Z,54.40
2018-11-11T12:55:49.042Z,53.70
2018-11-11T12:58:17.921Z,53.00
2018-11-11T13:00:46.798Z,52.80
2018-11-11T13:03:15.550Z,54.10
2018-11-11T13:05:44.276Z,54.10
2018-11-11T13:08:12.995Z,52.70
2018-11-11T13:10:41.718Z,52.10
2018-11-11T13:13:10.523Z,52.60
2018-11-11T13:15:39.398Z,52.70
2018-11-11T13:18:08.266Z,52.70
2018-11-11T13:20:37.139Z,52.70
2018-11-11T13:23:06.038Z,52.70
2018-11-11T13:25:34.885Z,52.60
2018-11-11T13:28:03.754Z,52.50
2018-11-11T13:30:32.591Z,52.30
2018-11-11T13:33:01.407Z,52.20
2018-11-11T13:35:30.251Z,52.20
2018-11-11T13:37:59.229Z,52.10
2018-11-11T13:40:28.042Z,52.00
2018-11-11T13:42:56.860Z,52.00
2018-11-11T13:45:25.730Z,51.90
2018-11-11T13:47:54.545Z,51.90
2018-11-11T13:50:24.511Z,51.80
2018-11-11T13:52:53.279Z,51.80
2018-11-11T13:55:22.591Z,51.70
2018-11-11T13:57:51.842Z,51.70
2018-11-11T14:00:25.062Z,51.70
2018-11-11T14:02:53.869Z,51.60
2018-11-11T14:05:22.724Z,51.90
2018-11-11T14:07:51.539Z,51.50
2018-11-11T14:10:20.370Z,51.50
2018-11-11T14:12:49.171Z,51.40
2018-11-11T14:15:22.636Z,51.40
2018-11-11T14:17:51.651Z,51.40
2018-11-11T14:20:21.636Z,51.40
2018-11-11T14:22:51.466Z,51.40
2018-11-11T14:25:23.967Z,51.30
2018-11-11T14:27:52.748Z,51.40
2018-11-11T14:30:24.715Z,51.20
2018-11-11T14:32:54.422Z,51.30
2018-11-11T14:35:23.385Z,51.30
2018-11-11T14:37:52.535Z,51.20
2018-11-11T14:40:23.788Z,51.20
2018-11-11T14:42:52.574Z,51.20
2018-11-11T14:45:22.782Z,51.20
2018-11-11T14:47:52.941Z,51.20
2018-11-11T14:50:22.449Z,51.20
2018-11-11T14:52:51.390Z,51.20
2018-11-11T14:55:21.630Z,51.20
2018-11-11T14:57:50.508Z,51.10
2018-11-11T15:00:25.703Z,51.20
2018-11-11T15:03:04.153Z,51.10
2018-11-11T15:05:33.371Z,51.10
2018-11-11T15:08:02.269Z,51.20
2018-11-11T15:10:31.088Z,51.10
2018-11-11T15:13:00.128Z,51.10
2018-11-11T15:15:28.986Z,51.10
2018-11-11T15:17:58.976Z,51.10
2018-11-11T15:20:27.857Z,51.10
2018-11-11T15:22:56.633Z,51.10
2018-11-11T15:25:26.752Z,51.10
2018-11-11T15:27:55.670Z,51.10
2018-11-11T15:30:26.752Z,51.10
2018-11-11T15:32:56.210Z,51.00
2018-11-11T15:35:25.093Z,51.10
2018-11-11T15:37:54.074Z,51.10
2018-11-11T15:40:24.441Z,51.00
2018-11-11T15:42:53.223Z,51.00
2018-11-11T15:45:23.467Z,51.10
2018-11-11T15:47:52.456Z,51.10
2018-11-11T15:50:22.686Z,51.00
2018-11-11T15:52:53.910Z,51.00
2018-11-11T15:55:24.051Z,51.00
2018-11-11T15:57:52.910Z,51.10
2018-11-11T16:00:23.999Z,51.10
2018-11-11T16:02:52.922Z,51.00
2018-11-11T16:05:21.914Z,51.00
2018-11-11T16:07:51.794Z,51.00
2018-11-11T16:10:23.021Z,51.00
2018-11-11T16:12:52.230Z,51.00
2018-11-11T16:15:23.465Z,51.00
2018-11-11T16:17:53.794Z,51.00
2018-11-11T16:20:23.922Z,51.10
2018-11-11T16:22:53.786Z,51.00
2018-11-11T16:25:22.693Z,51.00
2018-11-11T16:27:51.748Z,51.00
2018-11-11T16:30:22.739Z,51.00
2018-11-11T16:32:52.109Z,51.00
2018-11-11T16:35:22.358Z,50.80
2018-11-11T16:37:51.193Z,51.00
2018-11-11T16:40:21.229Z,51.50
2018-11-11T16:42:51.110Z,51.00
2018-11-11T16:45:21.167Z,51.00
2018-11-11T16:47:50.232Z,51.00
2018-11-11T16:50:21.414Z,51.00
2018-11-11T16:52:51.064Z,51.00
2018-11-11T16:55:21.478Z,51.00
2018-11-11T16:57:50.390Z,51.10
2018-11-11T17:00:21.849Z,51.10
2018-11-11T17:02:51.239Z,51.00
2018-11-11T17:05:21.629Z,51.00
2018-11-11T17:07:50.982Z,51.00
2018-11-11T17:10:21.257Z,51.10
2018-11-11T17:12:51.071Z,51.10
2018-11-11T17:15:21.204Z,51.10
2018-11-11T17:17:50.059Z,51.10
2018-11-11T17:20:20.081Z,51.20
2018-11-11T17:22:49.706Z,51.20
2018-11-11T17:25:19.483Z,51.90
2018-11-11T17:27:48.624Z,51.20
2018-11-11T17:30:20.559Z,51.20
2018-11-11T17:32:50.336Z,51.20
2018-11-11T17:35:19.207Z,51.90
2018-11-11T17:37:48.882Z,51.30
2018-11-11T17:40:20.750Z,51.30
2018-11-11T17:42:50.832Z,51.30
2018-11-11T17:45:20.003Z,51.30
2018-11-11T17:47:49.371Z,51.30
2018-11-11T17:50:23.922Z,51.30
2018-11-11T17:52:52.879Z,51.40
2018-11-11T17:55:23.047Z,51.90
2018-11-11T17:57:52.014Z,51.40
2018-11-11T18:00:23.424Z,51.50
2018-11-11T18:02:52.541Z,51.50
2018-11-11T18:05:22.834Z,51.50
2018-11-11T18:07:51.637Z,51.50
2018-11-11T18:10:21.894Z,51.50
2018-11-11T18:12:50.695Z,51.60
2018-11-11T18:15:29.306Z,51.70
2018-11-11T18:17:58.389Z,52.50
2018-11-11T18:20:28.733Z,52.00
2018-11-11T18:22:58.597Z,52.10
2018-11-11T18:25:27.529Z,52.60
2018-11-11T18:27:56.605Z,52.20
2018-11-11T18:30:31.964Z,52.10
2018-11-11T18:33:00.928Z,52.10
2018-11-11T18:35:30.007Z,52.10
2018-11-11T18:37:58.964Z,52.10
2018-11-11T18:40:28.936Z,52.00
2018-11-11T18:42:58.122Z,51.90
2018-11-11T18:45:28.682Z,51.90
2018-11-11T18:47:57.882Z,51.90
2018-11-11T18:50:29.421Z,51.90
2018-11-11T18:52:58.674Z,51.90
2018-11-11T18:55:27.815Z,52.40
2018-11-11T18:57:57.015Z,51.70
2018-11-11T19:00:27.637Z,51.80
2018-11-11T19:02:57.307Z,51.80
2018-11-11T19:05:26.938Z,51.80
2018-11-11T19:07:56.361Z,51.70
2018-11-11T19:10:26.913Z,51.70
2018-11-11T19:12:57.812Z,51.70
2018-11-11T19:15:26.812Z,51.70
2018-11-11T19:17:56.051Z,51.70
2018-11-11T19:20:26.287Z,51.70
2018-11-11T19:22:55.455Z,51.70
2018-11-11T19:25:25.986Z,51.70
2018-11-11T19:28:00.192Z,51.70
2018-11-11T19:30:30.275Z,51.70
2018-11-11T19:32:59.460Z,51.70
2018-11-11T19:35:28.839Z,51.70
2018-11-11T19:37:58.723Z,51.70
2018-11-11T19:40:29.910Z,51.70
2018-11-11T19:43:00.886Z,51.60
2018-11-11T19:45:34.459Z,51.60
2018-11-11T19:48:07.185Z,51.50
2018-11-11T19:50:37.602Z,51.60
2018-11-11T19:53:09.760Z,51.60
2018-11-11T19:55:39.002Z,51.70
2018-11-11T19:58:08.232Z,51.50
2018-11-11T20:00:37.959Z,51.50
2018-11-11T20:03:07.715Z,51.70
2018-11-11T20:05:37.021Z,51.60
2018-11-11T20:08:06.503Z,51.60
2018-11-11T20:10:36.765Z,51.50
2018-11-11T20:13:06.037Z,51.60
2018-11-11T20:15:35.711Z,51.60
2018-11-11T20:18:05.164Z,51.50
2018-11-11T20:20:36.941Z,51.60
2018-11-11T20:23:06.375Z,51.60
2018-11-11T20:25:36.710Z,51.60
2018-11-11T20:28:06.145Z,51.70
2018-11-11T20:30:36.882Z,51.70
2018-11-11T20:33:06.621Z,51.60
2018-11-11T20:35:36.058Z,51.60
2018-11-11T20:38:05.418Z,52.20
2018-11-11T20:40:34.608Z,51.70
2018-11-11T20:43:03.895Z,51.60
2018-11-11T20:45:34.093Z,51.60
2018-11-11T20:48:03.423Z,51.70
2018-11-11T20:50:33.765Z,51.70
2018-11-11T20:53:04.331Z,51.70
2018-11-11T20:55:34.085Z,51.70
2018-11-11T20:58:03.585Z,51.70
2018-11-11T21:00:35.221Z,52.20
2018-11-11T21:03:04.334Z,51.70
2018-11-11T21:05:33.384Z,51.60
2018-11-11T21:08:02.418Z,51.60
2018-11-11T21:10:32.144Z,51.70
2018-11-11T21:13:01.430Z,52.20
2018-11-11T21:15:31.398Z,51.60
2018-11-11T21:18:00.445Z,51.60
2018-11-11T21:20:30.687Z,52.00
2018-11-11T21:22:59.451Z,51.60
2018-11-11T21:25:28.398Z,51.60
2018-11-11T21:27:57.354Z,51.70
2018-11-11T21:30:29.461Z,51.60
2018-11-11T21:32:58.579Z,51.60
2018-11-11T21:35:27.877Z,51.60
2018-11-11T21:37:56.706Z,51.70
2018-11-11T21:40:26.326Z,51.70
2018-11-11T21:42:56.233Z,51.70
2018-11-11T21:45:26.129Z,51.60
2018-11-11T21:47:55.043Z,51.70
2018-11-11T21:50:26.196Z,51.70
2018-11-11T21:53:05.685Z,51.70
2018-11-11T21:55:34.406Z,51.70
2018-11-11T21:58:03.205Z,51.70
2018-11-11T22:00:32.118Z,51.70
2018-11-11T22:03:01.102Z,51.70
2018-11-11T22:05:29.895Z,52.00
2018-11-11T22:07:58.735Z,51.20
2018-11-11T22:10:27.567Z,50.70
2018-11-11T22:12:56.421Z,50.60
2018-11-11T22:15:25.180Z,50.40
2018-11-11T22:17:53.957Z,50.40
2018-11-11T22:20:22.746Z,50.10
2018-11-11T22:22:51.567Z,49.90
2018-11-11T22:25:20.380Z,49.80
2018-11-11T22:27:49.212Z,49.60
2018-11-11T22:30:17.968Z,49.50
2018-11-11T22:32:46.901Z,49.50
2018-11-11T22:35:15.742Z,49.40
2018-11-11T22:37:44.553Z,49.50
2018-11-11T22:40:13.824Z,49.40
